sensor_id;sensor_type;location;lat;lon;timestamp;temperature;humidity
17415;DHT22;8825;48.086;16.426;2022-12-07T00:01:27;7.60;68.00
17415;DHT22;8825;48.086;16.426;2022-12-07T00:03:57;7.60;68.00
17415;DHT22;8825;48.086;16.426;2022-12-07T00:06:26;7.60;68.00
17415;DHT22;8825;48.086;16.426;2022-12-07T00:08:54;7.60;68.10
17415;DHT22;8825;48.086;16.426;2022-12-07T00:11:22;7.60;68.20
17415;DHT22;8825;48.086;16.426;2022-12-07T00:13:55;7.60;68.20
17415;DHT22;8825;48.086;16.426;2022-12-07T00:16:25;7.60;68.20
17415;DHT22;8825;48.086;16.426;2022-12-07T00:18:53;7.60;67.90
17415;DHT22;8825;48.086;16.426;2022-12-07T00:21:24;7.60;67.50
17415;DHT22;8825;48.086;16.426;2022-12-07T00:23:53;7.60;67.30
17415;DHT22;8825;48.086;16.426;2022-12-07T00:26:29;7.60;67.10
17415;DHT22;8825;48.086;16.426;2022-12-07T00:28:59;7.60;66.90
17415;DHT22;8825;48.086;16.426;2022-12-07T00:31:29;7.60;66.90
17415;DHT22;8825;48.086;16.426;2022-12-07T00:33:58;7.70;66.80
17415;DHT22;8825;48.086;16.426;2022-12-07T00:36:26;7.70;66.80
17415;DHT22;8825;48.086;16.426;2022-12-07T00:38:54;7.70;66.80
17415;DHT22;8825;48.086;16.426;2022-12-07T00:41:24;7.70;66.50
17415;DHT22;8825;48.086;16.426;2022-12-07T00:43:53;7.70;66.40
17415;DHT22;8825;48.086;16.426;2022-12-07T00:46:21;7.80;66.40
17415;DHT22;8825;48.086;16.426;2022-12-07T00:48:50;7.80;66.30
17415;DHT22;8825;48.086;16.426;2022-12-07T00:51:19;7.90;66.40
17415;DHT22;8825;48.086;16.426;2022-12-07T00:53:48;7.90;66.40
17415;DHT22;8825;48.086;16.426;2022-12-07T00:56:18;7.90;66.30
17415;DHT22;8825;48.086;16.426;2022-12-07T00:58:57;8.00;66.40
17415;DHT22;8825;48.086;16.426;2022-12-07T01:01:27;8.00;66.30
17415;DHT22;8825;48.086;16.426;2022-12-07T01:03:55;8.00;66.30
17415;DHT22;8825;48.086;16.426;2022-12-07T01:06:23;8.10;66.30
17415;DHT22;8825;48.086;16.426;2022-12-07T01:08:51;8.10;66.30
17415;DHT22;8825;48.086;16.426;2022-12-07T01:11:22;8.10;66.40
17415;DHT22;8825;48.086;16.426;2022-12-07T01:13:51;8.10;66.70
17415;DHT22;8825;48.086;16.426;2022-12-07T01:16:20;8.10;66.00
17415;DHT22;8825;48.086;16.426;2022-12-07T01:18:51;8.10;66.10
17415;DHT22;8825;48.086;16.426;2022-12-07T01:21:21;8.20;66.20
17415;DHT22;8825;48.086;16.426;2022-12-07T01:23:50;8.10;66.20
17415;DHT22;8825;48.086;16.426;2022-12-07T01:26:20;8.20;66.20
17415;DHT22;8825;48.086;16.426;2022-12-07T01:28:48;8.20;66.10
17415;DHT22;8825;48.086;16.426;2022-12-07T01:31:18;8.20;66.10
17415;DHT22;8825;48.086;16.426;2022-12-07T01:33:49;8.20;66.10
17415;DHT22;8825;48.086;16.426;2022-12-07T01:36:39;8.20;66.00
17415;DHT22;8825;48.086;16.426;2022-12-07T01:38:49;8.20;66.00
17415;DHT22;8825;48.086;16.426;2022-12-07T01:41:21;8.20;66.10
17415;DHT22;8825;48.086;16.426;2022-12-07T01:46:53;8.20;66.10
17415;DHT22;8825;48.086;16.426;2022-12-07T01:49:36;8.20;66.20
17415;DHT22;8825;48.086;16.426;2022-12-07T01:52:28;8.20;67.00
17415;DHT22;8825;48.086;16.426;2022-12-07T01:54:59;8.20;66.30
17415;DHT22;8825;48.086;16.426;2022-12-07T01:57:27;8.20;66.40
17415;DHT22;8825;48.086;16.426;2022-12-07T01:59:56;8.10;66.40
17415;DHT22;8825;48.086;16.426;2022-12-07T02:02:34;8.20;66.60
17415;DHT22;8825;48.086;16.426;2022-12-07T02:04:59;8.20;66.70
17415;DHT22;8825;48.086;16.426;2022-12-07T02:07:28;8.20;66.70
17415;DHT22;8825;48.086;16.426;2022-12-07T02:09:56;8.20;66.70
17415;DHT22;8825;48.086;16.426;2022-12-07T02:12:24;8.20;66.90
17415;DHT22;8825;48.086;16.426;2022-12-07T02:14:52;8.20;67.40
17415;DHT22;8825;48.086;16.426;2022-12-07T02:17:28;8.20;66.90
17415;DHT22;8825;48.086;16.426;2022-12-07T02:20:11;8.10;66.90
17415;DHT22;8825;48.086;16.426;2022-12-07T02:28:24;8.10;67.10
17415;DHT22;8825;48.086;16.426;2022-12-07T02:30:49;8.00;67.10
17415;DHT22;8825;48.086;16.426;2022-12-07T02:33:20;8.00;67.20
17415;DHT22;8825;48.086;16.426;2022-12-07T02:35:57;8.10;67.40
17415;DHT22;8825;48.086;16.426;2022-12-07T02:38:31;8.00;67.40
17415;DHT22;8825;48.086;16.426;2022-12-07T02:44:01;8.00;67.30
17415;DHT22;8825;48.086;16.426;2022-12-07T02:46:33;8.00;67.40
17415;DHT22;8825;48.086;16.426;2022-12-07T02:49:01;8.00;67.40
17415;DHT22;8825;48.086;16.426;2022-12-07T02:51:33;8.00;67.50
17415;DHT22;8825;48.086;16.426;2022-12-07T02:54:01;8.00;67.50
17415;DHT22;8825;48.086;16.426;2022-12-07T03:07:22;7.90;67.50
17415;DHT22;8825;48.086;16.426;2022-12-07T03:10:10;7.90;67.60
17415;DHT22;8825;48.086;16.426;2022-12-07T03:13:01;7.90;67.60
17415;DHT22;8825;48.086;16.426;2022-12-07T03:15:16;7.90;67.60
17415;DHT22;8825;48.086;16.426;2022-12-07T03:17:46;7.90;67.60
17415;DHT22;8825;48.086;16.426;2022-12-07T03:20:17;7.90;67.70
17415;DHT22;8825;48.086;16.426;2022-12-07T03:22:46;7.90;67.70
17415;DHT22;8825;48.086;16.426;2022-12-07T03:25:16;7.90;67.70
17415;DHT22;8825;48.086;16.426;2022-12-07T03:27:55;7.90;67.60
17415;DHT22;8825;48.086;16.426;2022-12-07T03:30:27;7.90;67.60
17415;DHT22;8825;48.086;16.426;2022-12-07T03:35:33;7.90;67.60
17415;DHT22;8825;48.086;16.426;2022-12-07T03:38:08;8.00;67.70
17415;DHT22;8825;48.086;16.426;2022-12-07T03:40:40;8.00;67.70
17415;DHT22;8825;48.086;16.426;2022-12-07T03:43:05;7.90;68.40
17415;DHT22;8825;48.086;16.426;2022-12-07T03:45:41;8.00;67.80
17415;DHT22;8825;48.086;16.426;2022-12-07T03:48:20;8.00;67.80
17415;DHT22;8825;48.086;16.426;2022-12-07T03:50:49;7.90;67.80
17415;DHT22;8825;48.086;16.426;2022-12-07T03:53:29;7.90;67.60
17415;DHT22;8825;48.086;16.426;2022-12-07T03:55:54;7.90;67.80
17415;DHT22;8825;48.086;16.426;2022-12-07T03:58:23;7.90;67.60
17415;DHT22;8825;48.086;16.426;2022-12-07T04:00:52;7.90;67.60
17415;DHT22;8825;48.086;16.426;2022-12-07T04:03:19;7.90;67.60
17415;DHT22;8825;48.086;16.426;2022-12-07T04:05:47;7.90;67.70
17415;DHT22;8825;48.086;16.426;2022-12-07T04:08:15;7.90;67.80
17415;DHT22;8825;48.086;16.426;2022-12-07T04:10:42;7.90;67.70
17415;DHT22;8825;48.086;16.426;2022-12-07T04:13:10;7.90;67.80
17415;DHT22;8825;48.086;16.426;2022-12-07T04:15:37;7.90;67.80
17415;DHT22;8825;48.086;16.426;2022-12-07T04:18:05;7.90;67.80
17415;DHT22;8825;48.086;16.426;2022-12-07T04:20:32;7.90;67.80
17415;DHT22;8825;48.086;16.426;2022-12-07T04:23:00;7.90;67.80
17415;DHT22;8825;48.086;16.426;2022-12-07T04:25:27;7.90;67.90
17415;DHT22;8825;48.086;16.426;2022-12-07T04:27:55;7.90;67.90
17415;DHT22;8825;48.086;16.426;2022-12-07T04:30:22;7.90;68.00
17415;DHT22;8825;48.086;16.426;2022-12-07T04:32:50;7.90;68.10
17415;DHT22;8825;48.086;16.426;2022-12-07T04:35:17;7.90;68.00
17415;DHT22;8825;48.086;16.426;2022-12-07T04:37:45;8.00;68.10
17415;DHT22;8825;48.086;16.426;2022-12-07T04:40:12;8.00;68.00
17415;DHT22;8825;48.086;16.426;2022-12-07T04:42:40;8.00;67.90
17415;DHT22;8825;48.086;16.426;2022-12-07T04:45:08;8.00;67.90
17415;DHT22;8825;48.086;16.426;2022-12-07T04:47:36;8.00;67.80
17415;DHT22;8825;48.086;16.426;2022-12-07T04:50:04;8.00;67.70
17415;DHT22;8825;48.086;16.426;2022-12-07T04:52:32;8.00;67.80
17415;DHT22;8825;48.086;16.426;2022-12-07T04:54:59;8.00;67.80
17415;DHT22;8825;48.086;16.426;2022-12-07T04:57:27;8.00;67.70
17415;DHT22;8825;48.086;16.426;2022-12-07T04:59:55;8.00;67.70
17415;DHT22;8825;48.086;16.426;2022-12-07T05:02:22;8.00;67.70
17415;DHT22;8825;48.086;16.426;2022-12-07T05:04:50;8.10;67.70
17415;DHT22;8825;48.086;16.426;2022-12-07T05:07:17;8.10;67.90
17415;DHT22;8825;48.086;16.426;2022-12-07T05:09:44;8.00;67.70
17415;DHT22;8825;48.086;16.426;2022-12-07T05:12:12;8.00;67.70
17415;DHT22;8825;48.086;16.426;2022-12-07T05:14:39;8.10;67.70
17415;DHT22;8825;48.086;16.426;2022-12-07T05:17:07;8.00;67.70
17415;DHT22;8825;48.086;16.426;2022-12-07T05:19:34;8.00;67.70
17415;DHT22;8825;48.086;16.426;2022-12-07T05:22:02;8.10;67.80
17415;DHT22;8825;48.086;16.426;2022-12-07T05:24:30;8.10;67.70
17415;DHT22;8825;48.086;16.426;2022-12-07T05:26:57;8.10;67.80
17415;DHT22;8825;48.086;16.426;2022-12-07T05:29:25;8.10;68.60
17415;DHT22;8825;48.086;16.426;2022-12-07T05:31:52;8.00;67.80
17415;DHT22;8825;48.086;16.426;2022-12-07T05:34:20;8.00;67.80
17415;DHT22;8825;48.086;16.426;2022-12-07T05:36:47;8.00;67.80
17415;DHT22;8825;48.086;16.426;2022-12-07T05:39:15;8.00;67.90
17415;DHT22;8825;48.086;16.426;2022-12-07T05:41:43;8.10;68.00
17415;DHT22;8825;48.086;16.426;2022-12-07T05:44:28;8.10;68.00
17415;DHT22;8825;48.086;16.426;2022-12-07T05:46:56;8.00;68.00
17415;DHT22;8825;48.086;16.426;2022-12-07T05:49:23;8.00;67.90
17415;DHT22;8825;48.086;16.426;2022-12-07T05:51:51;8.00;68.00
17415;DHT22;8825;48.086;16.426;2022-12-07T05:54:18;8.10;68.00
17415;DHT22;8825;48.086;16.426;2022-12-07T05:56:46;8.00;67.90
17415;DHT22;8825;48.086;16.426;2022-12-07T05:59:13;8.10;68.00
17415;DHT22;8825;48.086;16.426;2022-12-07T06:01:58;8.10;68.10
17415;DHT22;8825;48.086;16.426;2022-12-07T06:04:28;8.10;68.00
17415;DHT22;8825;48.086;16.426;2022-12-07T06:06:56;8.10;68.20
17415;DHT22;8825;48.086;16.426;2022-12-07T06:09:25;8.10;68.20
17415;DHT22;8825;48.086;16.426;2022-12-07T06:11:54;8.10;68.20
17415;DHT22;8825;48.086;16.426;2022-12-07T06:14:39;8.00;68.00
17415;DHT22;8825;48.086;16.426;2022-12-07T06:17:08;8.00;68.00
17415;DHT22;8825;48.086;16.426;2022-12-07T06:19:35;8.00;68.20
17415;DHT22;8825;48.086;16.426;2022-12-07T06:22:03;8.10;68.10
17415;DHT22;8825;48.086;16.426;2022-12-07T06:24:34;8.10;68.20
17415;DHT22;8825;48.086;16.426;2022-12-07T06:27:01;8.10;68.10
17415;DHT22;8825;48.086;16.426;2022-12-07T06:29:29;8.10;68.00
17415;DHT22;8825;48.086;16.426;2022-12-07T06:31:57;8.10;68.00
17415;DHT22;8825;48.086;16.426;2022-12-07T06:34:25;8.10;67.90
17415;DHT22;8825;48.086;16.426;2022-12-07T06:36:53;8.20;67.80
17415;DHT22;8825;48.086;16.426;2022-12-07T06:39:26;8.20;67.70
17415;DHT22;8825;48.086;16.426;2022-12-07T06:41:54;8.20;67.70
17415;DHT22;8825;48.086;16.426;2022-12-07T06:44:23;8.20;67.70
17415;DHT22;8825;48.086;16.426;2022-12-07T06:46:51;8.20;67.60
17415;DHT22;8825;48.086;16.426;2022-12-07T06:49:19;8.20;68.20
17415;DHT22;8825;48.086;16.426;2022-12-07T06:51:47;8.20;67.60
17415;DHT22;8825;48.086;16.426;2022-12-07T06:54:15;8.20;67.50
17415;DHT22;8825;48.086;16.426;2022-12-07T06:56:43;8.30;67.60
17415;DHT22;8825;48.086;16.426;2022-12-07T06:59:10;8.30;67.60
17415;DHT22;8825;48.086;16.426;2022-12-07T07:01:38;8.30;67.60
17415;DHT22;8825;48.086;16.426;2022-12-07T07:04:05;8.30;67.60
17415;DHT22;8825;48.086;16.426;2022-12-07T07:06:33;8.30;67.60
17415;DHT22;8825;48.086;16.426;2022-12-07T07:09:01;8.30;67.60
17415;DHT22;8825;48.086;16.426;2022-12-07T07:11:28;8.30;67.60
17415;DHT22;8825;48.086;16.426;2022-12-07T07:13:56;8.30;67.60
17415;DHT22;8825;48.086;16.426;2022-12-07T07:16:25;8.30;67.60
17415;DHT22;8825;48.086;16.426;2022-12-07T07:18:53;8.30;67.50
17415;DHT22;8825;48.086;16.426;2022-12-07T07:21:20;8.30;67.60
17415;DHT22;8825;48.086;16.426;2022-12-07T07:23:48;8.30;67.60
17415;DHT22;8825;48.086;16.426;2022-12-07T07:26:15;8.30;67.60
17415;DHT22;8825;48.086;16.426;2022-12-07T07:28:43;8.30;67.60
17415;DHT22;8825;48.086;16.426;2022-12-07T07:31:10;8.30;67.60
17415;DHT22;8825;48.086;16.426;2022-12-07T07:33:38;8.30;67.60
17415;DHT22;8825;48.086;16.426;2022-12-07T07:36:06;8.30;67.70
17415;DHT22;8825;48.086;16.426;2022-12-07T07:38:33;8.30;67.60
17415;DHT22;8825;48.086;16.426;2022-12-07T07:41:01;8.30;67.60
17415;DHT22;8825;48.086;16.426;2022-12-07T07:43:28;8.30;67.50
17415;DHT22;8825;48.086;16.426;2022-12-07T07:45:56;8.30;67.50
17415;DHT22;8825;48.086;16.426;2022-12-07T07:48:23;8.30;67.60
17415;DHT22;8825;48.086;16.426;2022-12-07T07:50:52;8.40;67.60
17415;DHT22;8825;48.086;16.426;2022-12-07T07:53:19;8.30;67.50
17415;DHT22;8825;48.086;16.426;2022-12-07T07:55:52;8.40;67.60
17415;DHT22;8825;48.086;16.426;2022-12-07T07:58:20;8.40;67.60
17415;DHT22;8825;48.086;16.426;2022-12-07T08:00:48;8.40;67.60
17415;DHT22;8825;48.086;16.426;2022-12-07T08:03:15;8.50;67.60
17415;DHT22;8825;48.086;16.426;2022-12-07T08:05:43;8.50;67.50
17415;DHT22;8825;48.086;16.426;2022-12-07T08:08:10;8.60;67.50
17415;DHT22;8825;48.086;16.426;2022-12-07T08:10:38;8.60;67.40
17415;DHT22;8825;48.086;16.426;2022-12-07T08:13:05;8.60;67.50
17415;DHT22;8825;48.086;16.426;2022-12-07T08:15:47;8.60;67.20
17415;DHT22;8825;48.086;16.426;2022-12-07T08:18:15;8.60;67.20
17415;DHT22;8825;48.086;16.426;2022-12-07T08:20:43;8.70;67.20
17415;DHT22;8825;48.086;16.426;2022-12-07T08:23:10;8.70;67.60
17415;DHT22;8825;48.086;16.426;2022-12-07T08:25:38;8.70;67.10
17415;DHT22;8825;48.086;16.426;2022-12-07T08:28:06;8.70;67.00
17415;DHT22;8825;48.086;16.426;2022-12-07T08:30:34;8.70;67.00
17415;DHT22;8825;48.086;16.426;2022-12-07T08:33:02;8.80;67.00
17415;DHT22;8825;48.086;16.426;2022-12-07T08:35:29;8.80;66.50
17415;DHT22;8825;48.086;16.426;2022-12-07T08:37:57;8.70;66.00
17415;DHT22;8825;48.086;16.426;2022-12-07T08:40:24;8.70;65.90
17415;DHT22;8825;48.086;16.426;2022-12-07T08:42:52;8.70;65.90
17415;DHT22;8825;48.086;16.426;2022-12-07T08:45:21;8.70;65.80
17415;DHT22;8825;48.086;16.426;2022-12-07T08:47:57;8.80;65.80
17415;DHT22;8825;48.086;16.426;2022-12-07T08:50:25;8.80;65.60
17415;DHT22;8825;48.086;16.426;2022-12-07T08:52:55;8.80;65.60
17415;DHT22;8825;48.086;16.426;2022-12-07T08:55:24;8.80;65.40
17415;DHT22;8825;48.086;16.426;2022-12-07T08:57:52;8.90;64.90
17415;DHT22;8825;48.086;16.426;2022-12-07T09:00:19;8.90;64.50
17415;DHT22;8825;48.086;16.426;2022-12-07T09:02:47;8.90;64.00
17415;DHT22;8825;48.086;16.426;2022-12-07T09:05:15;8.90;63.20
17415;DHT22;8825;48.086;16.426;2022-12-07T09:07:48;8.90;61.90
17415;DHT22;8825;48.086;16.426;2022-12-07T09:10:17;8.90;61.90
17415;DHT22;8825;48.086;16.426;2022-12-07T09:12:44;8.90;61.70
17415;DHT22;8825;48.086;16.426;2022-12-07T09:15:12;8.90;61.10
17415;DHT22;8825;48.086;16.426;2022-12-07T09:17:40;8.90;60.80
17415;DHT22;8825;48.086;16.426;2022-12-07T09:20:07;8.90;59.80
17415;DHT22;8825;48.086;16.426;2022-12-07T09:22:35;9.00;60.20
17415;DHT22;8825;48.086;16.426;2022-12-07T09:25:04;9.00;59.90
17415;DHT22;8825;48.086;16.426;2022-12-07T09:27:31;9.00;59.30
17415;DHT22;8825;48.086;16.426;2022-12-07T09:29:59;9.00;58.80
17415;DHT22;8825;48.086;16.426;2022-12-07T09:32:26;8.90;58.00
17415;DHT22;8825;48.086;16.426;2022-12-07T09:34:54;9.00;58.00
17415;DHT22;8825;48.086;16.426;2022-12-07T09:37:21;9.00;58.00
17415;DHT22;8825;48.086;16.426;2022-12-07T09:39:49;9.00;57.80
17415;DHT22;8825;48.086;16.426;2022-12-07T09:42:34;9.00;57.50
17415;DHT22;8825;48.086;16.426;2022-12-07T09:45:04;9.00;57.40
17415;DHT22;8825;48.086;16.426;2022-12-07T09:47:33;9.00;57.30
17415;DHT22;8825;48.086;16.426;2022-12-07T09:50:06;9.10;57.40
17415;DHT22;8825;48.086;16.426;2022-12-07T09:52:34;9.20;57.00
17415;DHT22;8825;48.086;16.426;2022-12-07T09:55:03;9.70;57.00
17415;DHT22;8825;48.086;16.426;2022-12-07T09:57:33;9.90;56.50
17415;DHT22;8825;48.086;16.426;2022-12-07T10:00:06;10.40;55.80
17415;DHT22;8825;48.086;16.426;2022-12-07T10:02:41;10.90;54.80
17415;DHT22;8825;48.086;16.426;2022-12-07T10:05:06;11.00;54.00
17415;DHT22;8825;48.086;16.426;2022-12-07T10:07:34;11.10;53.90
17415;DHT22;8825;48.086;16.426;2022-12-07T10:10:30;11.70;53.10
17415;DHT22;8825;48.086;16.426;2022-12-07T10:15:22;12.80;50.70
17415;DHT22;8825;48.086;16.426;2022-12-07T10:17:51;12.90;50.10
17415;DHT22;8825;48.086;16.426;2022-12-07T10:20:24;12.80;49.10
17415;DHT22;8825;48.086;16.426;2022-12-07T10:23:04;12.90;49.40
17415;DHT22;8825;48.086;16.426;2022-12-07T10:25:36;13.40;49.00
17415;DHT22;8825;48.086;16.426;2022-12-07T10:28:13;13.50;48.30
17415;DHT22;8825;48.086;16.426;2022-12-07T10:33:38;13.40;47.00
17415;DHT22;8825;48.086;16.426;2022-12-07T10:36:29;13.60;46.50
17415;DHT22;8825;48.086;16.426;2022-12-07T10:38:58;13.40;45.50
17415;DHT22;8825;48.086;16.426;2022-12-07T10:41:22;12.80;46.10
17415;DHT22;8825;48.086;16.426;2022-12-07T10:43:52;12.40;46.70
17415;DHT22;8825;48.086;16.426;2022-12-07T10:46:40;12.10;47.10
17415;DHT22;8825;48.086;16.426;2022-12-07T10:52:07;11.50;48.00
17415;DHT22;8825;48.086;16.426;2022-12-07T11:02:45;10.90;48.60
17415;DHT22;8825;48.086;16.426;2022-12-07T11:05:32;11.00;48.60
17415;DHT22;8825;48.086;16.426;2022-12-07T11:10:41;10.90;48.50
17415;DHT22;8825;48.086;16.426;2022-12-07T11:13:21;10.90;49.30
17415;DHT22;8825;48.086;16.426;2022-12-07T11:16:12;10.90;49.10
17415;DHT22;8825;48.086;16.426;2022-12-07T11:18:45;10.90;49.40
17415;DHT22;8825;48.086;16.426;2022-12-07T11:24:10;10.70;49.20
17415;DHT22;8825;48.086;16.426;2022-12-07T11:37:44;9.90;50.60
17415;DHT22;8825;48.086;16.426;2022-12-07T11:42:58;9.70;51.00
17415;DHT22;8825;48.086;16.426;2022-12-07T11:45:34;9.60;51.40
17415;DHT22;8825;48.086;16.426;2022-12-07T11:48:06;9.60;51.70
17415;DHT22;8825;48.086;16.426;2022-12-07T11:50:48;9.50;51.80
17415;DHT22;8825;48.086;16.426;2022-12-07T11:53:22;9.40;51.80
17415;DHT22;8825;48.086;16.426;2022-12-07T11:56:09;9.40;52.00
17415;DHT22;8825;48.086;16.426;2022-12-07T11:58:47;9.30;52.70
17415;DHT22;8825;48.086;16.426;2022-12-07T12:04:45;9.20;52.70
17415;DHT22;8825;48.086;16.426;2022-12-07T12:07:02;9.20;53.00
17415;DHT22;8825;48.086;16.426;2022-12-07T12:09:33;9.10;53.10
17415;DHT22;8825;48.086;16.426;2022-12-07T12:12:13;9.20;53.30
17415;DHT22;8825;48.086;16.426;2022-12-07T12:20:03;9.20;53.20
17415;DHT22;8825;48.086;16.426;2022-12-07T12:22:45;9.30;53.60
17415;DHT22;8825;48.086;16.426;2022-12-07T12:25:19;9.30;53.50
17415;DHT22;8825;48.086;16.426;2022-12-07T12:27:45;9.30;53.50
17415;DHT22;8825;48.086;16.426;2022-12-07T12:30:35;9.40;53.40
17415;DHT22;8825;48.086;16.426;2022-12-07T12:33:13;9.40;53.50
17415;DHT22;8825;48.086;16.426;2022-12-07T12:35:41;9.40;53.50
17415;DHT22;8825;48.086;16.426;2022-12-07T12:38:31;9.50;53.70
17415;DHT22;8825;48.086;16.426;2022-12-07T12:41:01;9.50;53.60
17415;DHT22;8825;48.086;16.426;2022-12-07T12:43:43;9.50;53.40
17415;DHT22;8825;48.086;16.426;2022-12-07T12:54:35;9.60;53.20
17415;DHT22;8825;48.086;16.426;2022-12-07T12:57:13;9.60;53.20
17415;DHT22;8825;48.086;16.426;2022-12-07T13:02:25;9.50;52.70
17415;DHT22;8825;48.086;16.426;2022-12-07T13:07:49;9.50;52.70
17415;DHT22;8825;48.086;16.426;2022-12-07T13:10:44;9.50;52.60
17415;DHT22;8825;48.086;16.426;2022-12-07T13:15:55;9.40;52.80
17415;DHT22;8825;48.086;16.426;2022-12-07T13:21:01;9.40;53.00
17415;DHT22;8825;48.086;16.426;2022-12-07T13:28:50;9.40;53.10
17415;DHT22;8825;48.086;16.426;2022-12-07T13:31:32;9.40;53.10
17415;DHT22;8825;48.086;16.426;2022-12-07T13:34:02;9.40;53.10
17415;DHT22;8825;48.086;16.426;2022-12-07T13:36:37;9.40;53.00
17415;DHT22;8825;48.086;16.426;2022-12-07T13:39:21;9.40;52.90
17415;DHT22;8825;48.086;16.426;2022-12-07T13:41:52;9.40;52.90
17415;DHT22;8825;48.086;16.426;2022-12-07T13:44:20;9.30;53.00
17415;DHT22;8825;48.086;16.426;2022-12-07T13:49:32;9.30;53.30
17415;DHT22;8825;48.086;16.426;2022-12-07T13:52:19;9.30;53.40
17415;DHT22;8825;48.086;16.426;2022-12-07T13:54:54;9.30;53.70
17415;DHT22;8825;48.086;16.426;2022-12-07T13:57:18;9.40;53.70
17415;DHT22;8825;48.086;16.426;2022-12-07T13:59:46;9.40;53.80
17415;DHT22;8825;48.086;16.426;2022-12-07T14:02:26;9.40;53.80
17415;DHT22;8825;48.086;16.426;2022-12-07T14:05:13;9.40;54.00
17415;DHT22;8825;48.086;16.426;2022-12-07T14:08:40;9.40;53.50
17415;DHT22;8825;48.086;16.426;2022-12-07T14:12:54;9.30;52.60
17415;DHT22;8825;48.086;16.426;2022-12-07T14:15:26;9.30;52.60
17415;DHT22;8825;48.086;16.426;2022-12-07T14:17:55;9.20;52.80
17415;DHT22;8825;48.086;16.426;2022-12-07T14:20:37;9.20;52.00
17415;DHT22;8825;48.086;16.426;2022-12-07T14:23:21;9.20;52.00
17415;DHT22;8825;48.086;16.426;2022-12-07T14:25:51;9.10;52.50
17415;DHT22;8825;48.086;16.426;2022-12-07T14:28:27;9.10;51.70
17415;DHT22;8825;48.086;16.426;2022-12-07T14:30:55;9.00;51.90
17415;DHT22;8825;48.086;16.426;2022-12-07T14:33:24;9.00;52.20
17415;DHT22;8825;48.086;16.426;2022-12-07T14:35:51;8.90;52.20
17415;DHT22;8825;48.086;16.426;2022-12-07T14:38:21;8.90;52.40
17415;DHT22;8825;48.086;16.426;2022-12-07T14:40:49;8.80;52.40
17415;DHT22;8825;48.086;16.426;2022-12-07T14:43:18;8.80;52.50
17415;DHT22;8825;48.086;16.426;2022-12-07T14:45:46;8.80;52.60
17415;DHT22;8825;48.086;16.426;2022-12-07T14:48:15;8.80;52.70
17415;DHT22;8825;48.086;16.426;2022-12-07T14:50:44;8.80;52.80
17415;DHT22;8825;48.086;16.426;2022-12-07T14:53:21;8.80;52.90
17415;DHT22;8825;48.086;16.426;2022-12-07T14:55:43;8.70;53.00
17415;DHT22;8825;48.086;16.426;2022-12-07T14:58:15;8.70;53.10
17415;DHT22;8825;48.086;16.426;2022-12-07T15:00:43;8.60;53.20
17415;DHT22;8825;48.086;16.426;2022-12-07T15:03:11;8.60;53.30
17415;DHT22;8825;48.086;16.426;2022-12-07T15:05:39;8.50;53.30
17415;DHT22;8825;48.086;16.426;2022-12-07T15:08:10;8.50;54.10
17415;DHT22;8825;48.086;16.426;2022-12-07T15:10:38;8.50;53.60
17415;DHT22;8825;48.086;16.426;2022-12-07T15:13:06;8.50;53.70
17415;DHT22;8825;48.086;16.426;2022-12-07T15:15:54;8.40;53.80
17415;DHT22;8825;48.086;16.426;2022-12-07T15:18:23;8.40;54.00
17415;DHT22;8825;48.086;16.426;2022-12-07T15:20:51;8.30;53.90
17415;DHT22;8825;48.086;16.426;2022-12-07T15:23:18;8.30;53.80
17415;DHT22;8825;48.086;16.426;2022-12-07T15:25:47;8.30;53.90
17415;DHT22;8825;48.086;16.426;2022-12-07T15:28:16;8.30;53.90
17415;DHT22;8825;48.086;16.426;2022-12-07T15:30:44;8.30;54.10
17415;DHT22;8825;48.086;16.426;2022-12-07T15:33:13;8.30;54.20
17415;DHT22;8825;48.086;16.426;2022-12-07T15:35:47;8.30;54.40
17415;DHT22;8825;48.086;16.426;2022-12-07T15:38:11;8.30;54.30
17415;DHT22;8825;48.086;16.426;2022-12-07T15:40:41;8.30;54.40
17415;DHT22;8825;48.086;16.426;2022-12-07T15:43:10;8.30;54.50
17415;DHT22;8825;48.086;16.426;2022-12-07T15:45:39;8.20;54.40
17415;DHT22;8825;48.086;16.426;2022-12-07T15:48:07;8.10;54.80
17415;DHT22;8825;48.086;16.426;2022-12-07T15:50:35;8.10;54.60
17415;DHT22;8825;48.086;16.426;2022-12-07T15:53:02;8.10;54.70
17415;DHT22;8825;48.086;16.426;2022-12-07T15:55:30;8.00;55.00
17415;DHT22;8825;48.086;16.426;2022-12-07T15:57:59;8.00;54.70
17415;DHT22;8825;48.086;16.426;2022-12-07T16:00:28;7.90;54.70
17415;DHT22;8825;48.086;16.426;2022-12-07T16:02:56;7.90;54.80
17415;DHT22;8825;48.086;16.426;2022-12-07T16:05:23;7.80;54.80
17415;DHT22;8825;48.086;16.426;2022-12-07T16:07:52;7.80;54.90
17415;DHT22;8825;48.086;16.426;2022-12-07T16:10:20;7.70;55.00
17415;DHT22;8825;48.086;16.426;2022-12-07T16:12:48;7.70;55.20
17415;DHT22;8825;48.086;16.426;2022-12-07T16:15:15;7.70;55.20
17415;DHT22;8825;48.086;16.426;2022-12-07T16:17:43;7.60;55.30
17415;DHT22;8825;48.086;16.426;2022-12-07T16:20:11;7.60;55.40
17415;DHT22;8825;48.086;16.426;2022-12-07T16:22:38;7.50;55.40
17415;DHT22;8825;48.086;16.426;2022-12-07T16:25:06;7.50;55.50
17415;DHT22;8825;48.086;16.426;2022-12-07T16:27:34;7.40;55.50
17415;DHT22;8825;48.086;16.426;2022-12-07T16:30:02;7.40;55.50
17415;DHT22;8825;48.086;16.426;2022-12-07T16:32:29;7.40;55.60
17415;DHT22;8825;48.086;16.426;2022-12-07T16:34:57;7.30;56.00
17415;DHT22;8825;48.086;16.426;2022-12-07T16:37:25;7.30;55.70
17415;DHT22;8825;48.086;16.426;2022-12-07T16:39:52;7.20;55.80
17415;DHT22;8825;48.086;16.426;2022-12-07T16:42:20;7.20;55.90
17415;DHT22;8825;48.086;16.426;2022-12-07T16:44:47;7.10;55.90
17415;DHT22;8825;48.086;16.426;2022-12-07T16:47:15;7.10;56.00
17415;DHT22;8825;48.086;16.426;2022-12-07T16:49:43;7.00;56.10
17415;DHT22;8825;48.086;16.426;2022-12-07T16:52:10;7.00;56.20
17415;DHT22;8825;48.086;16.426;2022-12-07T16:54:38;6.90;56.30
17415;DHT22;8825;48.086;16.426;2022-12-07T16:57:05;6.90;56.40
17415;DHT22;8825;48.086;16.426;2022-12-07T16:59:33;6.80;56.50
17415;DHT22;8825;48.086;16.426;2022-12-07T17:02:01;6.70;56.70
17415;DHT22;8825;48.086;16.426;2022-12-07T17:04:28;6.70;56.80
17415;DHT22;8825;48.086;16.426;2022-12-07T17:06:56;6.70;56.80
17415;DHT22;8825;48.086;16.426;2022-12-07T17:09:25;6.60;56.80
17415;DHT22;8825;48.086;16.426;2022-12-07T17:11:52;6.60;57.00
17415;DHT22;8825;48.086;16.426;2022-12-07T17:14:20;6.60;57.20
17415;DHT22;8825;48.086;16.426;2022-12-07T17:17:05;6.60;57.10
17415;DHT22;8825;48.086;16.426;2022-12-07T17:19:33;6.60;57.10
17415;DHT22;8825;48.086;16.426;2022-12-07T17:22:00;6.60;57.20
17415;DHT22;8825;48.086;16.426;2022-12-07T17:24:28;6.60;57.20
17415;DHT22;8825;48.086;16.426;2022-12-07T17:26:57;6.60;57.20
17415;DHT22;8825;48.086;16.426;2022-12-07T17:29:24;6.60;57.30
17415;DHT22;8825;48.086;16.426;2022-12-07T17:31:52;6.60;57.30
17415;DHT22;8825;48.086;16.426;2022-12-07T17:34:19;6.60;57.30
17415;DHT22;8825;48.086;16.426;2022-12-07T17:36:47;6.60;57.50
17415;DHT22;8825;48.086;16.426;2022-12-07T17:39:16;6.60;57.60
17415;DHT22;8825;48.086;16.426;2022-12-07T17:41:44;6.60;57.90
17415;DHT22;8825;48.086;16.426;2022-12-07T17:44:31;6.60;57.90